TimeCST,TemperatureF,Dew PointF,Humidity,Sea Level PressureIn,VisibilityMPH,Wind Direction,Wind SpeedMPH,Gust SpeedMPH,PrecipitationIn,Events,Conditions,WindDirDegrees,DateUTC
2:45 AM,47,42,76,29.97,3,Calm,Calm,,,,,,2012-11-24 08:45:00
5:45 AM,42,39,83,30.06,3,Calm,Calm,,,,,,2012-11-24 11:45:00
6:40 AM,39.2,35.6,87,30.40,8.0,North,8.1,-,N/A,,Partly Cloudy,360,2012-11-24 12:40:00
7:49 AM,48.2,37.4,66,30.43,10.0,North,12.7,-,N/A,,Mostly Cloudy,350,2012-11-24 13:49:00
8:44 AM,51.8,35.6,54,30.44,10.0,North,17.3,-,N/A,,Partly Cloudy,360,2012-11-24 14:44:00
8:50 AM,52,38,49,30.17,3,SSW,2.2,,,,Haze,210,2012-11-24 14:50:00
9:45 AM,57.2,33.8,41,30.44,10.0,North,9.2,-,N/A,,Partly Cloudy,350,2012-11-24 15:45:00
10:49 AM,62.6,30.2,30,30.41,10.0,NNE,11.5,-,N/A,,Partly Cloudy,20,2012-11-24 16:49:00
11:43 AM,64.4,28.4,26,30.39,10.0,NE,9.2,-,N/A,,Clear,40,2012-11-24 17:43:00
11:50 AM,64,31,17,30.10,6,SW,2.2,,,,Haze,230,2012-11-24 17:50:00
12:42 PM,66.2,32.0,28,30.36,10.0,NNE,11.5,-,N/A,,Clear,30,2012-11-24 18:42:00
1:48 PM,68.0,33.8,28,30.31,10.0,NNE,6.9,-,N/A,,Clear,20,2012-11-24 19:48:00
2:40 PM,69,32,15,29.91,6,WNW,2.2,,,,Haze,290,2012-11-24 20:40:00
2:44 PM,68.0,32.0,26,30.29,10.0,ENE,2.3,-,N/A,,Partly Cloudy,70,2012-11-24 20:44:00
3:40 PM,68.0,32.0,26,30.27,10.0,NE,6.9,-,N/A,,Partly Cloudy,50,2012-11-24 21:40:00
4:41 PM,66.2,33.8,30,30.27,10.0,ENE,6.9,-,N/A,,Scattered Clouds,70,2012-11-24 22:41:00
5:40 PM,64,35,22,29.82,9,NE,2.2,,,,Haze,50,2012-11-24 23:40:00
5:40 PM,59.0,37.4,45,30.29,10.0,NE,9.2,-,N/A,,Scattered Clouds,40,2012-11-24 23:40:00
6:40 PM,55.4,39.2,54,30.32,10.0,NW,10.4,-,N/A,,Scattered Clouds,320,2012-11-25 00:40:00
7:48 PM,50.0,39.2,66,30.36,8.0,North,10.4,-,N/A,,Scattered Clouds,350,2012-11-25 01:48:00
8:41 PM,50.0,39.2,66,30.37,8.0,NNW,9.2,-,N/A,,Mostly Cloudy,330,2012-11-25 02:41:00
8:50 PM,55,34,32,29.88,3,Calm,Calm,,,,Clear,,2012-11-25 02:50:00
9:45 PM,48.2,37.4,66,30.38,8.0,WNW,8.1,-,N/A,,Mostly Cloudy,290,2012-11-25 03:45:00
10:41 PM,46.4,37.4,71,30.38,8.0,Calm,Calm,-,N/A,,Mostly Cloudy,0,2012-11-25 04:41:00
11:50 PM,51,39,53,29.94,3,Calm,Calm,,,,Clear,,2012-11-25 05:50:00